sensor_id;sensor_type;location;lat;lon;timestamp;pressure;altitude;pressure_sealevel;temperature;humidity
19843;BME280;10082;51.038;6.992;2023-09-19T00:00:56;112171.53;;;-144.33;100.00
19843;BME280;10082;51.038;6.992;2023-09-19T00:03:22;112171.53;;;-144.33;100.00
19843;BME280;10082;51.038;6.992;2023-09-19T00:05:50;112171.53;;;-144.33;100.00
19843;BME280;10082;51.038;6.992;2023-09-19T00:08:17;112171.53;;;-144.33;100.00
19843;BME280;10082;51.038;6.992;2023-09-19T00:10:47;112171.53;;;-144.33;100.00
19843;BME280;10082;51.038;6.992;2023-09-19T00:13:16;112171.53;;;-144.33;100.00
19843;BME280;10082;51.038;6.992;2023-09-19T00:15:46;112171.53;;;-144.33;100.00
19843;BME280;10082;51.038;6.992;2023-09-19T00:18:14;112171.53;;;-144.33;100.00
19843;BME280;10082;51.038;6.992;2023-09-19T00:20:42;112171.53;;;-144.33;100.00
19843;BME280;10082;51.038;6.992;2023-09-19T00:23:13;112171.53;;;-144.33;100.00
19843;BME280;10082;51.038;6.992;2023-09-19T00:25:40;112171.53;;;-144.33;100.00
19843;BME280;10082;51.038;6.992;2023-09-19T00:28:07;112171.53;;;-144.33;100.00
19843;BME280;10082;51.038;6.992;2023-09-19T00:30:37;112171.53;;;-144.33;100.00
19843;BME280;10082;51.038;6.992;2023-09-19T00:33:05;112171.53;;;-144.33;100.00
19843;BME280;10082;51.038;6.992;2023-09-19T00:35:38;112171.53;;;-144.33;100.00
19843;BME280;10082;51.038;6.992;2023-09-19T00:38:05;112171.53;;;-144.33;100.00
19843;BME280;10082;51.038;6.992;2023-09-19T00:40:33;112171.53;;;-144.33;100.00
19843;BME280;10082;51.038;6.992;2023-09-19T00:43:00;112171.53;;;-144.33;100.00
19843;BME280;10082;51.038;6.992;2023-09-19T00:45:28;112171.53;;;-144.33;100.00
19843;BME280;10082;51.038;6.992;2023-09-19T00:48:01;112171.53;;;-144.33;100.00
19843;BME280;10082;51.038;6.992;2023-09-19T00:50:36;112171.53;;;-144.33;100.00
19843;BME280;10082;51.038;6.992;2023-09-19T00:53:05;112171.53;;;-144.33;100.00
19843;BME280;10082;51.038;6.992;2023-09-19T00:55:34;112171.53;;;-144.33;100.00
19843;BME280;10082;51.038;6.992;2023-09-19T00:58:03;112171.53;;;-144.33;100.00
19843;BME280;10082;51.038;6.992;2023-09-19T01:00:32;112171.53;;;-144.33;100.00
19843;BME280;10082;51.038;6.992;2023-09-19T01:03:01;112171.53;;;-144.33;100.00
19843;BME280;10082;51.038;6.992;2023-09-19T01:05:29;112171.53;;;-144.33;100.00
19843;BME280;10082;51.038;6.992;2023-09-19T01:07:56;112171.53;;;-144.33;100.00
19843;BME280;10082;51.038;6.992;2023-09-19T01:10:25;112171.53;;;-144.33;100.00
19843;BME280;10082;51.038;6.992;2023-09-19T01:12:55;112171.53;;;-144.33;100.00
19843;BME280;10082;51.038;6.992;2023-09-19T01:15:40;112171.53;;;-144.33;100.00
19843;BME280;10082;51.038;6.992;2023-09-19T01:18:25;112171.53;;;-144.33;100.00
19843;BME280;10082;51.038;6.992;2023-09-19T01:21:01;112171.53;;;-144.33;100.00
19843;BME280;10082;51.038;6.992;2023-09-19T01:23:53;112171.53;;;-144.33;100.00
19843;BME280;10082;51.038;6.992;2023-09-19T01:26:38;112171.53;;;-144.33;100.00
19843;BME280;10082;51.038;6.992;2023-09-19T01:29:26;112171.53;;;-144.33;100.00
19843;BME280;10082;51.038;6.992;2023-09-19T01:32:04;112171.53;;;-144.33;100.00
19843;BME280;10082;51.038;6.992;2023-09-19T01:34:44;112171.53;;;-144.33;100.00
19843;BME280;10082;51.038;6.992;2023-09-19T01:37:14;112171.53;;;-144.33;100.00
19843;BME280;10082;51.038;6.992;2023-09-19T01:39:46;112171.53;;;-144.33;100.00
19843;BME280;10082;51.038;6.992;2023-09-19T01:42:23;112171.53;;;-144.33;100.00
19843;BME280;10082;51.038;6.992;2023-09-19T01:44:57;112171.53;;;-144.33;100.00
19843;BME280;10082;51.038;6.992;2023-09-19T01:47:33;112171.53;;;-144.33;100.00
19843;BME280;10082;51.038;6.992;2023-09-19T01:50:11;112171.53;;;-144.33;100.00
19843;BME280;10082;51.038;6.992;2023-09-19T01:52:57;112171.53;;;-144.33;100.00
19843;BME280;10082;51.038;6.992;2023-09-19T01:55:28;112171.53;;;-144.33;100.00
19843;BME280;10082;51.038;6.992;2023-09-19T01:58:01;112171.53;;;-144.33;100.00
19843;BME280;10082;51.038;6.992;2023-09-19T02:00:35;112171.53;;;-144.33;100.00
19843;BME280;10082;51.038;6.992;2023-09-19T02:03:08;112171.53;;;-144.33;100.00
19843;BME280;10082;51.038;6.992;2023-09-19T02:05:37;112171.53;;;-144.33;100.00
19843;BME280;10082;51.038;6.992;2023-09-19T02:08:05;112171.53;;;-144.33;100.00
19843;BME280;10082;51.038;6.992;2023-09-19T02:10:33;112171.53;;;-144.33;100.00
19843;BME280;10082;51.038;6.992;2023-09-19T02:13:01;112171.53;;;-144.33;100.00
19843;BME280;10082;51.038;6.992;2023-09-19T02:15:30;112171.53;;;-144.33;100.00
19843;BME280;10082;51.038;6.992;2023-09-19T02:18:07;112171.53;;;-144.33;100.00
19843;BME280;10082;51.038;6.992;2023-09-19T02:20:34;112171.53;;;-144.33;100.00
19843;BME280;10082;51.038;6.992;2023-09-19T02:23:03;112171.53;;;-144.33;100.00
19843;BME280;10082;51.038;6.992;2023-09-19T02:25:33;112171.53;;;-144.33;100.00
19843;BME280;10082;51.038;6.992;2023-09-19T02:28:04;112171.53;;;-144.33;100.00
19843;BME280;10082;51.038;6.992;2023-09-19T02:30:32;112171.53;;;-144.33;100.00
19843;BME280;10082;51.038;6.992;2023-09-19T02:33:04;112171.53;;;-144.33;100.00
19843;BME280;10082;51.038;6.992;2023-09-19T02:35:32;112171.53;;;-144.33;100.00
19843;BME280;10082;51.038;6.992;2023-09-19T02:38:02;112171.53;;;-144.33;100.00
19843;BME280;10082;51.038;6.992;2023-09-19T02:40:32;112171.53;;;-144.33;100.00
19843;BME280;10082;51.038;6.992;2023-09-19T02:43:01;112171.53;;;-144.33;100.00
19843;BME280;10082;51.038;6.992;2023-09-19T02:45:29;112171.53;;;-144.33;100.00
19843;BME280;10082;51.038;6.992;2023-09-19T02:47:57;112171.53;;;-144.33;100.00
19843;BME280;10082;51.038;6.992;2023-09-19T02:50:27;112171.53;;;-144.33;100.00
19843;BME280;10082;51.038;6.992;2023-09-19T02:52:55;112171.53;;;-144.33;100.00
19843;BME280;10082;51.038;6.992;2023-09-19T02:55:22;112171.53;;;-144.33;100.00
19843;BME280;10082;51.038;6.992;2023-09-19T02:57:52;112171.53;;;-144.33;100.00
19843;BME280;10082;51.038;6.992;2023-09-19T03:00:24;112171.53;;;-144.33;100.00
19843;BME280;10082;51.038;6.992;2023-09-19T03:02:54;112171.53;;;-144.33;100.00
19843;BME280;10082;51.038;6.992;2023-09-19T03:05:23;112171.53;;;-144.33;100.00
19843;BME280;10082;51.038;6.992;2023-09-19T03:07:54;112171.53;;;-144.33;100.00
19843;BME280;10082;51.038;6.992;2023-09-19T03:10:21;112171.53;;;-144.33;100.00
19843;BME280;10082;51.038;6.992;2023-09-19T03:12:51;112171.53;;;-144.33;100.00
19843;BME280;10082;51.038;6.992;2023-09-19T03:15:18;112171.53;;;-144.33;100.00
19843;BME280;10082;51.038;6.992;2023-09-19T03:17:51;112171.53;;;-144.33;100.00
19843;BME280;10082;51.038;6.992;2023-09-19T03:20:22;112171.53;;;-144.33;100.00
19843;BME280;10082;51.038;6.992;2023-09-19T03:22:50;112171.53;;;-144.33;100.00
19843;BME280;10082;51.038;6.992;2023-09-19T03:25:19;112171.53;;;-144.33;100.00
19843;BME280;10082;51.038;6.992;2023-09-19T03:27:50;112171.53;;;-144.33;100.00
19843;BME280;10082;51.038;6.992;2023-09-19T03:30:19;112171.53;;;-144.33;100.00
19843;BME280;10082;51.038;6.992;2023-09-19T03:32:47;112171.53;;;-144.33;100.00
19843;BME280;10082;51.038;6.992;2023-09-19T03:35:17;112171.53;;;-144.33;100.00
19843;BME280;10082;51.038;6.992;2023-09-19T03:37:45;112171.53;;;-144.33;100.00
19843;BME280;10082;51.038;6.992;2023-09-19T03:40:13;112171.53;;;-144.33;100.00
19843;BME280;10082;51.038;6.992;2023-09-19T03:42:43;112171.53;;;-144.33;100.00
19843;BME280;10082;51.038;6.992;2023-09-19T03:45:12;112171.53;;;-144.33;100.00
19843;BME280;10082;51.038;6.992;2023-09-19T03:47:47;112171.53;;;-144.33;100.00
19843;BME280;10082;51.038;6.992;2023-09-19T03:50:20;112171.53;;;-144.33;100.00
19843;BME280;10082;51.038;6.992;2023-09-19T03:52:48;112171.53;;;-144.33;100.00
19843;BME280;10082;51.038;6.992;2023-09-19T03:55:15;112171.53;;;-144.33;100.00
19843;BME280;10082;51.038;6.992;2023-09-19T03:57:47;112171.53;;;-144.33;100.00
19843;BME280;10082;51.038;6.992;2023-09-19T04:00:15;112171.53;;;-144.33;100.00
19843;BME280;10082;51.038;6.992;2023-09-19T04:02:47;112171.53;;;-144.33;100.00
19843;BME280;10082;51.038;6.992;2023-09-19T04:05:14;112171.53;;;-144.33;100.00
19843;BME280;10082;51.038;6.992;2023-09-19T04:07:42;112171.53;;;-144.33;100.00
19843;BME280;10082;51.038;6.992;2023-09-19T04:10:10;112171.53;;;-144.33;100.00
19843;BME280;10082;51.038;6.992;2023-09-19T04:12:38;112171.53;;;-144.33;100.00
19843;BME280;10082;51.038;6.992;2023-09-19T04:15:10;112171.53;;;-144.33;100.00
19843;BME280;10082;51.038;6.992;2023-09-19T04:17:39;112171.53;;;-144.33;100.00
19843;BME280;10082;51.038;6.992;2023-09-19T04:20:07;112171.53;;;-144.33;100.00
19843;BME280;10082;51.038;6.992;2023-09-19T04:22:38;112171.53;;;-144.33;100.00
19843;BME280;10082;51.038;6.992;2023-09-19T04:25:11;112171.53;;;-144.33;100.00
19843;BME280;10082;51.038;6.992;2023-09-19T04:27:39;112171.53;;;-144.33;100.00
19843;BME280;10082;51.038;6.992;2023-09-19T04:30:07;112171.53;;;-144.33;100.00
19843;BME280;10082;51.038;6.992;2023-09-19T04:32:39;112171.53;;;-144.33;100.00
19843;BME280;10082;51.038;6.992;2023-09-19T04:35:07;112171.53;;;-144.33;100.00
19843;BME280;10082;51.038;6.992;2023-09-19T04:37:39;112171.53;;;-144.33;100.00
19843;BME280;10082;51.038;6.992;2023-09-19T04:40:08;112171.53;;;-144.33;100.00
19843;BME280;10082;51.038;6.992;2023-09-19T04:42:40;112171.53;;;-144.33;100.00
19843;BME280;10082;51.038;6.992;2023-09-19T04:45:08;112171.53;;;-144.33;100.00
19843;BME280;10082;51.038;6.992;2023-09-19T04:47:36;112171.53;;;-144.33;100.00
19843;BME280;10082;51.038;6.992;2023-09-19T04:50:08;112171.53;;;-144.33;100.00
19843;BME280;10082;51.038;6.992;2023-09-19T04:52:39;112171.53;;;-144.33;100.00
19843;BME280;10082;51.038;6.992;2023-09-19T04:55:10;112171.53;;;-144.33;100.00
19843;BME280;10082;51.038;6.992;2023-09-19T04:57:43;112171.53;;;-144.33;100.00
19843;BME280;10082;51.038;6.992;2023-09-19T05:00:12;112171.53;;;-144.33;100.00
19843;BME280;10082;51.038;6.992;2023-09-19T05:02:40;112171.53;;;-144.33;100.00
19843;BME280;10082;51.038;6.992;2023-09-19T05:05:11;112171.53;;;-144.33;100.00
19843;BME280;10082;51.038;6.992;2023-09-19T05:07:41;112171.53;;;-144.33;100.00
19843;BME280;10082;51.038;6.992;2023-09-19T05:10:09;112171.53;;;-144.33;100.00
19843;BME280;10082;51.038;6.992;2023-09-19T05:12:37;112171.53;;;-144.33;100.00
19843;BME280;10082;51.038;6.992;2023-09-19T05:15:05;112171.53;;;-144.33;100.00
19843;BME280;10082;51.038;6.992;2023-09-19T05:17:33;112171.53;;;-144.33;100.00
19843;BME280;10082;51.038;6.992;2023-09-19T05:20:01;112171.53;;;-144.33;100.00
19843;BME280;10082;51.038;6.992;2023-09-19T05:22:42;112171.53;;;-144.33;100.00
19843;BME280;10082;51.038;6.992;2023-09-19T05:25:14;112171.53;;;-144.33;100.00
19843;BME280;10082;51.038;6.992;2023-09-19T05:27:43;112171.53;;;-144.33;100.00
19843;BME280;10082;51.038;6.992;2023-09-19T05:30:11;112171.53;;;-144.33;100.00
19843;BME280;10082;51.038;6.992;2023-09-19T05:32:42;112171.53;;;-144.33;100.00
19843;BME280;10082;51.038;6.992;2023-09-19T05:35:09;112171.53;;;-144.33;100.00
19843;BME280;10082;51.038;6.992;2023-09-19T05:37:38;112171.53;;;-144.33;100.00
19843;BME280;10082;51.038;6.992;2023-09-19T05:40:10;112171.53;;;-144.33;100.00
19843;BME280;10082;51.038;6.992;2023-09-19T05:42:38;112171.53;;;-144.33;100.00
19843;BME280;10082;51.038;6.992;2023-09-19T05:45:07;112171.53;;;-144.33;100.00
19843;BME280;10082;51.038;6.992;2023-09-19T05:47:37;112171.53;;;-144.33;100.00
19843;BME280;10082;51.038;6.992;2023-09-19T05:50:04;112171.53;;;-144.33;100.00
19843;BME280;10082;51.038;6.992;2023-09-19T05:52:33;112171.53;;;-144.33;100.00
19843;BME280;10082;51.038;6.992;2023-09-19T05:55:00;112171.53;;;-144.33;100.00
19843;BME280;10082;51.038;6.992;2023-09-19T05:57:32;112171.53;;;-144.33;100.00
19843;BME280;10082;51.038;6.992;2023-09-19T05:59:59;112171.53;;;-144.33;100.00
19843;BME280;10082;51.038;6.992;2023-09-19T06:02:27;112171.53;;;-144.33;100.00
19843;BME280;10082;51.038;6.992;2023-09-19T06:04:55;112171.53;;;-144.33;100.00
19843;BME280;10082;51.038;6.992;2023-09-19T06:07:22;112171.53;;;-144.33;100.00
19843;BME280;10082;51.038;6.992;2023-09-19T06:09:51;112171.53;;;-144.33;100.00
19843;BME280;10082;51.038;6.992;2023-09-19T06:12:19;112171.53;;;-144.33;100.00
19843;BME280;10082;51.038;6.992;2023-09-19T06:14:47;112171.53;;;-144.33;100.00
19843;BME280;10082;51.038;6.992;2023-09-19T06:17:14;112171.53;;;-144.33;100.00
19843;BME280;10082;51.038;6.992;2023-09-19T06:19:42;112171.53;;;-144.33;100.00
19843;BME280;10082;51.038;6.992;2023-09-19T06:22:15;112171.53;;;-144.33;100.00
19843;BME280;10082;51.038;6.992;2023-09-19T06:24:44;112171.53;;;-144.33;100.00
19843;BME280;10082;51.038;6.992;2023-09-19T06:27:12;112171.53;;;-144.33;100.00
19843;BME280;10082;51.038;6.992;2023-09-19T06:29:47;112171.53;;;-144.33;100.00
19843;BME280;10082;51.038;6.992;2023-09-19T06:32:17;112171.53;;;-144.33;100.00
19843;BME280;10082;51.038;6.992;2023-09-19T06:34:51;112171.53;;;-144.33;100.00
19843;BME280;10082;51.038;6.992;2023-09-19T06:37:20;112171.53;;;-144.33;100.00
19843;BME280;10082;51.038;6.992;2023-09-19T06:39:48;112171.53;;;-144.33;100.00
19843;BME280;10082;51.038;6.992;2023-09-19T06:42:16;112171.53;;;-144.33;100.00
19843;BME280;10082;51.038;6.992;2023-09-19T06:44:43;112171.53;;;-144.33;100.00
19843;BME280;10082;51.038;6.992;2023-09-19T06:47:12;112171.53;;;-144.33;100.00
19843;BME280;10082;51.038;6.992;2023-09-19T06:49:45;112171.53;;;-144.33;100.00
19843;BME280;10082;51.038;6.992;2023-09-19T06:52:13;112171.53;;;-144.33;100.00
19843;BME280;10082;51.038;6.992;2023-09-19T06:54:42;112171.53;;;-144.33;100.00
19843;BME280;10082;51.038;6.992;2023-09-19T06:57:10;112171.53;;;-144.33;100.00
19843;BME280;10082;51.038;6.992;2023-09-19T06:59:39;112171.53;;;-144.33;100.00
19843;BME280;10082;51.038;6.992;2023-09-19T07:02:09;112171.53;;;-144.33;100.00
19843;BME280;10082;51.038;6.992;2023-09-19T07:04:38;112171.53;;;-144.33;100.00
19843;BME280;10082;51.038;6.992;2023-09-19T07:07:08;112171.53;;;-144.33;100.00
19843;BME280;10082;51.038;6.992;2023-09-19T07:09:40;112171.53;;;-144.33;100.00
19843;BME280;10082;51.038;6.992;2023-09-19T07:12:08;112171.53;;;-144.33;100.00
19843;BME280;10082;51.038;6.992;2023-09-19T07:14:35;112171.53;;;-144.33;100.00
19843;BME280;10082;51.038;6.992;2023-09-19T07:17:03;112171.53;;;-144.33;100.00
19843;BME280;10082;51.038;6.992;2023-09-19T07:19:34;112171.53;;;-144.33;100.00
19843;BME280;10082;51.038;6.992;2023-09-19T07:22:03;112171.53;;;-144.33;100.00
19843;BME280;10082;51.038;6.992;2023-09-19T07:24:30;112171.53;;;-144.33;100.00
19843;BME280;10082;51.038;6.992;2023-09-19T07:26:59;112171.53;;;-144.33;100.00
19843;BME280;10082;51.038;6.992;2023-09-19T07:29:26;112171.53;;;-144.33;100.00
19843;BME280;10082;51.038;6.992;2023-09-19T07:31:54;112171.53;;;-144.33;100.00
19843;BME280;10082;51.038;6.992;2023-09-19T07:34:27;112171.53;;;-144.33;100.00
19843;BME280;10082;51.038;6.992;2023-09-19T07:36:58;112171.53;;;-144.33;100.00
19843;BME280;10082;51.038;6.992;2023-09-19T07:39:32;112171.53;;;-144.33;100.00
19843;BME280;10082;51.038;6.992;2023-09-19T07:41:59;112171.53;;;-144.33;100.00
19843;BME280;10082;51.038;6.992;2023-09-19T07:44:27;112171.53;;;-144.33;100.00
19843;BME280;10082;51.038;6.992;2023-09-19T07:46:54;112171.53;;;-144.33;100.00
19843;BME280;10082;51.038;6.992;2023-09-19T07:49:22;112171.53;;;-144.33;100.00
19843;BME280;10082;51.038;6.992;2023-09-19T07:51:49;112171.53;;;-144.33;100.00
19843;BME280;10082;51.038;6.992;2023-09-19T07:54:18;112171.53;;;-144.33;100.00
19843;BME280;10082;51.038;6.992;2023-09-19T07:56:48;112171.53;;;-144.33;100.00
19843;BME280;10082;51.038;6.992;2023-09-19T07:59:15;112171.53;;;-144.33;100.00
19843;BME280;10082;51.038;6.992;2023-09-19T08:01:43;112171.53;;;-144.33;100.00
19843;BME280;10082;51.038;6.992;2023-09-19T08:04:10;112171.53;;;-144.33;100.00
19843;BME280;10082;51.038;6.992;2023-09-19T08:06:37;112171.53;;;-144.33;100.00
19843;BME280;10082;51.038;6.992;2023-09-19T08:09:04;112171.53;;;-144.33;100.00
19843;BME280;10082;51.038;6.992;2023-09-19T08:11:36;112171.53;;;-144.33;100.00
19843;BME280;10082;51.038;6.992;2023-09-19T08:14:06;112171.53;;;-144.33;100.00
19843;BME280;10082;51.038;6.992;2023-09-19T08:16:34;112171.53;;;-144.33;100.00
19843;BME280;10082;51.038;6.992;2023-09-19T08:19:01;112171.53;;;-144.33;100.00
19843;BME280;10082;51.038;6.992;2023-09-19T08:21:28;112171.53;;;-144.33;100.00
19843;BME280;10082;51.038;6.992;2023-09-19T08:23:55;112171.53;;;-144.33;100.00
19843;BME280;10082;51.038;6.992;2023-09-19T08:26:23;112171.53;;;-144.33;100.00
19843;BME280;10082;51.038;6.992;2023-09-19T08:28:51;112171.53;;;-144.33;100.00
19843;BME280;10082;51.038;6.992;2023-09-19T08:31:20;112171.53;;;-144.33;100.00
19843;BME280;10082;51.038;6.992;2023-09-19T08:33:49;112171.53;;;-144.33;100.00
19843;BME280;10082;51.038;6.992;2023-09-19T08:36:17;112171.53;;;-144.33;100.00
19843;BME280;10082;51.038;6.992;2023-09-19T08:38:49;112171.53;;;-144.33;100.00
19843;BME280;10082;51.038;6.992;2023-09-19T08:41:17;112171.53;;;-144.33;100.00
19843;BME280;10082;51.038;6.992;2023-09-19T08:43:44;112171.53;;;-144.33;100.00
19843;BME280;10082;51.038;6.992;2023-09-19T08:46:15;112171.53;;;-144.33;100.00
19843;BME280;10082;51.038;6.992;2023-09-19T08:48:50;112171.53;;;-144.33;100.00
19843;BME280;10082;51.038;6.992;2023-09-19T08:51:26;112171.53;;;-144.33;100.00
19843;BME280;10082;51.038;6.992;2023-09-19T08:54:00;112171.53;;;-144.33;100.00
19843;BME280;10082;51.038;6.992;2023-09-19T08:56:32;112171.53;;;-144.33;100.00
19843;BME280;10082;51.038;6.992;2023-09-19T08:59:02;112171.53;;;-144.33;100.00
19843;BME280;10082;51.038;6.992;2023-09-19T09:01:31;112171.53;;;-144.33;100.00
19843;BME280;10082;51.038;6.992;2023-09-19T09:04:01;112171.53;;;-144.33;100.00
19843;BME280;10082;51.038;6.992;2023-09-19T09:06:29;112171.53;;;-144.33;100.00
19843;BME280;10082;51.038;6.992;2023-09-19T09:08:58;112171.53;;;-144.33;100.00
19843;BME280;10082;51.038;6.992;2023-09-19T09:11:26;112171.53;;;-144.33;100.00
19843;BME280;10082;51.038;6.992;2023-09-19T09:13:53;112171.53;;;-144.33;100.00
19843;BME280;10082;51.038;6.992;2023-09-19T09:16:20;112171.53;;;-144.33;100.00
19843;BME280;10082;51.038;6.992;2023-09-19T09:18:52;112171.53;;;-144.33;100.00
19843;BME280;10082;51.038;6.992;2023-09-19T09:21:21;112171.53;;;-144.33;100.00
19843;BME280;10082;51.038;6.992;2023-09-19T09:23:50;112171.53;;;-144.33;100.00
19843;BME280;10082;51.038;6.992;2023-09-19T09:26:40;112171.53;;;-144.33;100.00
19843;BME280;10082;51.038;6.992;2023-09-19T09:29:08;112171.53;;;-144.33;100.00
19843;BME280;10082;51.038;6.992;2023-09-19T09:31:35;112171.53;;;-144.33;100.00
19843;BME280;10082;51.038;6.992;2023-09-19T09:34:03;112171.53;;;-144.33;100.00
19843;BME280;10082;51.038;6.992;2023-09-19T09:36:36;112171.53;;;-144.33;100.00
19843;BME280;10082;51.038;6.992;2023-09-19T09:39:06;112171.53;;;-144.33;100.00
19843;BME280;10082;51.038;6.992;2023-09-19T09:41:44;112171.53;;;-144.33;100.00
19843;BME280;10082;51.038;6.992;2023-09-19T09:44:16;112171.53;;;-144.33;100.00
19843;BME280;10082;51.038;6.992;2023-09-19T09:46:48;112171.53;;;-144.33;100.00
19843;BME280;10082;51.038;6.992;2023-09-19T09:49:47;112171.53;;;-144.33;100.00
19843;BME280;10082;51.038;6.992;2023-09-19T09:52:21;112171.53;;;-144.33;100.00
19843;BME280;10082;51.038;6.992;2023-09-19T09:54:59;112171.53;;;-144.33;98.19
19843;BME280;10082;51.038;6.992;2023-09-19T09:57:31;112171.53;;;-144.33;100.00
19843;BME280;10082;51.038;6.992;2023-09-19T10:00:00;112171.53;;;-144.33;100.00
19843;BME280;10082;51.038;6.992;2023-09-19T10:02:42;112171.53;;;-144.33;100.00
19843;BME280;10082;51.038;6.992;2023-09-19T10:05:13;112171.53;;;-144.33;100.00
19843;BME280;10082;51.038;6.992;2023-09-19T10:07:49;112171.53;;;-144.33;100.00
19843;BME280;10082;51.038;6.992;2023-09-19T10:10:32;112171.53;;;-144.33;100.00
19843;BME280;10082;51.038;6.992;2023-09-19T10:13:11;112171.53;;;-144.33;100.00
19843;BME280;10082;51.038;6.992;2023-09-19T10:15:42;112171.53;;;-144.33;100.00
19843;BME280;10082;51.038;6.992;2023-09-19T10:18:19;112171.53;;;-144.33;99.24
19843;BME280;10082;51.038;6.992;2023-09-19T10:20:47;112171.53;;;-144.33;97.60
19843;BME280;10082;51.038;6.992;2023-09-19T10:23:17;112171.53;;;-144.33;94.62
19843;BME280;10082;51.038;6.992;2023-09-19T10:25:49;112171.53;;;-144.33;94.24
19843;BME280;10082;51.038;6.992;2023-09-19T10:28:17;112171.53;;;-144.33;91.30
19843;BME280;10082;51.038;6.992;2023-09-19T10:30:48;112171.53;;;-144.33;91.33
19843;BME280;10082;51.038;6.992;2023-09-19T10:33:17;112171.53;;;-144.33;92.37
19843;BME280;10082;51.038;6.992;2023-09-19T10:35:46;112171.53;;;-144.33;89.96
19843;BME280;10082;51.038;6.992;2023-09-19T10:38:17;112171.53;;;-144.33;86.00
19843;BME280;10082;51.038;6.992;2023-09-19T10:40:44;112171.53;;;-144.33;84.56
19843;BME280;10082;51.038;6.992;2023-09-19T10:43:16;112171.53;;;-144.33;83.04
19843;BME280;10082;51.038;6.992;2023-09-19T10:45:45;112171.53;;;-144.33;80.78
19843;BME280;10082;51.038;6.992;2023-09-19T10:48:15;112171.53;;;-144.33;81.93
19843;BME280;10082;51.038;6.992;2023-09-19T10:50:48;112171.53;;;-144.33;84.66
19843;BME280;10082;51.038;6.992;2023-09-19T10:53:17;112171.53;;;-144.33;77.51
19843;BME280;10082;51.038;6.992;2023-09-19T10:55:52;112171.53;;;-144.33;76.65
19843;BME280;10082;51.038;6.992;2023-09-19T10:58:26;112171.53;;;-144.33;76.29
19843;BME280;10082;51.038;6.992;2023-09-19T11:00:55;112171.53;;;-144.33;77.39
19843;BME280;10082;51.038;6.992;2023-09-19T11:03:27;112171.53;;;-144.33;76.59
19843;BME280;10082;51.038;6.992;2023-09-19T11:06:07;112171.53;;;-144.33;75.06
19843;BME280;10082;51.038;6.992;2023-09-19T11:08:54;112171.53;;;-144.33;74.16
19843;BME280;10082;51.038;6.992;2023-09-19T11:11:43;112171.53;;;-144.33;74.31
19843;BME280;10082;51.038;6.992;2023-09-19T11:14:16;112171.53;;;-144.33;77.39
19843;BME280;10082;51.038;6.992;2023-09-19T11:17:30;112171.53;;;-144.33;80.61
19843;BME280;10082;51.038;6.992;2023-09-19T11:20:23;112171.53;;;-144.33;78.77
19843;BME280;10082;51.038;6.992;2023-09-19T11:23:25;112171.53;;;-144.33;73.79
19843;BME280;10082;51.038;6.992;2023-09-19T11:25:58;112171.53;;;-144.33;78.22
19843;BME280;10082;51.038;6.992;2023-09-19T11:28:43;112171.53;;;-144.33;76.63
19843;BME280;10082;51.038;6.992;2023-09-19T11:31:41;112171.53;;;-144.33;78.05
19843;BME280;10082;51.038;6.992;2023-09-19T11:34:37;112171.53;;;-144.33;76.32
19843;BME280;10082;51.038;6.992;2023-09-19T11:40:45;112171.53;;;-144.33;70.99
19843;BME280;10082;51.038;6.992;2023-09-19T11:43:31;112171.53;;;-144.33;73.40
19843;BME280;10082;51.038;6.992;2023-09-19T11:49:28;112171.53;;;-144.33;73.07
19843;BME280;10082;51.038;6.992;2023-09-19T11:51:57;112171.53;;;-144.33;77.41
19843;BME280;10082;51.038;6.992;2023-09-19T11:54:27;112171.53;;;-144.33;73.40
19843;BME280;10082;51.038;6.992;2023-09-19T11:56:57;112171.53;;;-144.33;76.67
19843;BME280;10082;51.038;6.992;2023-09-19T11:59:29;112171.53;;;-144.33;78.74
19843;BME280;10082;51.038;6.992;2023-09-19T12:01:57;112171.53;;;-144.33;77.21
19843;BME280;10082;51.038;6.992;2023-09-19T12:04:34;112171.53;;;-144.33;72.57
19843;BME280;10082;51.038;6.992;2023-09-19T12:07:04;112171.53;;;-144.33;72.56
19843;BME280;10082;51.038;6.992;2023-09-19T12:09:39;112171.53;;;-144.33;74.36
19843;BME280;10082;51.038;6.992;2023-09-19T12:12:10;112171.53;;;-144.33;75.22
19843;BME280;10082;51.038;6.992;2023-09-19T12:14:40;112171.53;;;-144.33;73.94
19843;BME280;10082;51.038;6.992;2023-09-19T12:17:09;112171.53;;;-144.33;71.93
19843;BME280;10082;51.038;6.992;2023-09-19T12:19:49;112171.53;;;-144.33;67.03
19843;BME280;10082;51.038;6.992;2023-09-19T12:22:18;112171.53;;;-144.33;66.58
19843;BME280;10082;51.038;6.992;2023-09-19T12:24:46;112171.53;;;-144.33;67.73
19843;BME280;10082;51.038;6.992;2023-09-19T12:27:14;112171.53;;;-144.33;67.52
19843;BME280;10082;51.038;6.992;2023-09-19T12:29:44;112171.53;;;-144.33;66.87
19843;BME280;10082;51.038;6.992;2023-09-19T12:32:11;112171.53;;;-144.33;68.05
19843;BME280;10082;51.038;6.992;2023-09-19T12:34:42;112171.53;;;-144.33;65.90
19843;BME280;10082;51.038;6.992;2023-09-19T12:37:11;112171.53;;;-144.33;67.84
19843;BME280;10082;51.038;6.992;2023-09-19T12:39:45;112171.53;;;-144.33;65.18
19843;BME280;10082;51.038;6.992;2023-09-19T12:42:15;112171.53;;;-144.33;64.53
19843;BME280;10082;51.038;6.992;2023-09-19T12:44:49;112171.53;;;-144.33;65.91
19843;BME280;10082;51.038;6.992;2023-09-19T12:47:18;112171.53;;;-144.33;67.73
19843;BME280;10082;51.038;6.992;2023-09-19T12:50:08;112171.53;;;-144.33;66.67